Time;durP1;ratioP1;P1;durP2;ratioP2;P2;SDS_P1;SDS_P2;PMS_P1;PMS_P2;Temp;Humidity;BMP_temperature;BMP_pressure;BME280_temperature;BME280_humidity;BME280_pressure;Samples;Min_cycle;Max_cycle;Signal;HPM_P1;HPM_P2
2022/04/05 00:00:37;;;;;;;28.50;27.40;;;21.70;41.50;;;;;;5054635;28;20839;-49
2022/04/05 00:03:03;;;;;;;28.40;27.30;;;21.70;41.40;;;;;;5054399;28;20448;-46
2022/04/05 00:05:30;;;;;;;28.43;27.33;;;21.60;41.40;;;;;;5054193;28;20464;-46
2022/04/05 00:07:57;;;;;;;28.03;26.93;;;21.60;41.40;;;;;;5054464;28;20448;-46
2022/04/05 00:10:24;;;;;;;28.27;27.17;;;21.60;41.40;;;;;;5054422;28;20454;-45
2022/04/05 00:12:52;;;;;;;27.00;25.90;;;21.60;41.40;;;;;;5054035;28;20451;-46
2022/04/05 00:15:18;;;;;;;28.77;27.67;;;21.60;41.40;;;;;;5054164;28;20476;-45
2022/04/05 00:17:45;;;;;;;27.87;26.77;;;21.50;41.40;;;;;;5054200;28;20727;-46
2022/04/05 00:20:12;;;;;;;28.00;26.90;;;21.30;41.60;;;;;;5054299;28;20509;-45
2022/04/05 00:22:39;;;;;;;28.60;27.40;;;21.30;41.90;;;;;;5054206;28;20820;-45
2022/04/05 00:25:07;;;;;;;28.93;27.83;;;21.40;41.90;;;;;;5053834;28;20838;-46
2022/04/05 00:27:34;;;;;;;27.97;26.87;;;21.50;41.90;;;;;;5053874;28;20455;-45
2022/04/05 00:30:02;;;;;;;27.93;26.83;;;21.60;41.80;;;;;;5054101;28;20539;-46
2022/04/05 00:32:29;;;;;;;27.70;26.60;;;21.50;41.70;;;;;;5053957;28;20449;-45
2022/04/05 00:34:55;;;;;;;27.77;26.70;;;21.60;41.70;;;;;;5053641;28;20484;-46
2022/04/05 00:37:22;;;;;;;28.33;27.23;;;21.60;41.70;;;;;;5053672;28;20472;-46
2022/04/05 00:39:50;;;;;;;28.40;27.30;;;21.50;41.60;;;;;;5053823;28;20445;-46
2022/04/05 00:42:17;;;;;;;29.87;28.67;;;21.40;41.70;;;;;;5053811;28;20453;-45
2022/04/05 00:44:44;;;;;;;29.13;28.03;;;21.30;42.00;;;;;;5053253;28;20448;-45
2022/04/05 00:47:20;;;;;;;29.80;28.60;;;21.20;42.10;;;;;;5053429;28;20835;-45
2022/04/05 00:49:48;;;;;;;28.60;27.50;;;21.20;42.20;;;;;;5053647;28;20444;-46
2022/04/05 00:52:16;;;;;;;28.70;27.60;;;21.20;42.30;;;;;;5053603;28;20928;-45
2022/04/05 00:54:45;;;;;;;28.80;27.60;;;21.20;42.40;;;;;;5053206;28;20483;-46
2022/04/05 00:57:13;;;;;;;30.07;28.97;;;21.30;42.50;;;;;;5053086;28;21006;-45
2022/04/05 00:59:42;;;;;;;28.20;27.10;;;21.40;42.30;;;;;;5053552;28;20448;-46
2022/04/05 01:02:12;;;;;;;28.13;27.03;;;21.50;42.10;;;;;;5053254;28;20522;-46
2022/04/05 01:04:42;;;;;;;28.57;27.47;;;21.60;42.00;;;;;;5053128;28;20448;-46
2022/04/05 01:07:11;;;;;;;28.80;27.70;;;21.50;41.90;;;;;;5052956;28;20533;-46
2022/04/05 01:09:39;;;;;;;27.57;26.50;;;21.50;41.90;;;;;;5053261;28;20444;-46
2022/04/05 01:12:07;;;;;;;28.40;27.30;;;21.50;41.90;;;;;;5053022;28;20445;-47
2022/04/05 01:14:34;;;;;;;28.27;27.17;;;21.60;42.00;;;;;;5053194;28;20675;-45
2022/04/05 01:17:01;;;;;;;29.13;28.03;;;21.50;41.80;;;;;;5052962;28;20801;-45
2022/04/05 01:19:28;;;;;;;29.83;28.63;;;21.40;41.90;;;;;;5053163;28;20441;-45
2022/04/05 01:21:56;;;;;;;28.17;26.97;;;21.30;42.10;;;;;;5052933;28;20527;-45
2022/04/05 01:24:25;;;;;;;28.07;26.97;;;21.30;42.30;;;;;;5053031;28;20439;-44
2022/04/05 01:26:53;;;;;;;28.70;27.60;;;21.40;42.30;;;;;;5052693;28;20475;-45
2022/04/05 01:29:22;;;;;;;28.73;27.63;;;21.50;42.20;;;;;;5052988;28;20455;-49
2022/04/05 01:31:51;;;;;;;28.87;27.67;;;21.60;42.10;;;;;;5052535;28;20441;-45
2022/04/05 01:34:20;;;;;;;27.20;26.10;;;21.60;42.10;;;;;;5052800;28;20480;-46
2022/04/05 01:36:50;;;;;;;28.50;27.40;;;21.60;42.00;;;;;;5052397;28;20468;-46
2022/04/05 01:39:18;;;;;;;28.50;27.40;;;21.60;41.90;;;;;;5052732;28;20459;-45
2022/04/05 01:41:47;;;;;;;28.40;27.30;;;21.60;41.90;;;;;;5052031;28;20445;-45
2022/04/05 01:44:14;;;;;;;28.17;27.07;;;21.60;42.00;;;;;;5052620;28;20456;-45
2022/04/05 01:46:41;;;;;;;29.83;28.73;;;21.50;41.90;;;;;;5052290;28;20475;-46
2022/04/05 01:49:09;;;;;;;29.53;28.40;;;21.30;42.10;;;;;;5052621;28;20445;-46
2022/04/05 01:51:38;;;;;;;28.97;27.87;;;21.30;42.30;;;;;;5052205;28;20551;-45
2022/04/05 01:54:06;;;;;;;28.23;27.13;;;21.30;42.60;;;;;;5052453;28;20755;-46
2022/04/05 01:56:33;;;;;;;27.90;26.80;;;21.30;42.60;;;;;;5051972;28;20975;-45
2022/04/05 01:59:01;;;;;;;27.30;26.20;;;21.30;42.50;;;;;;5052268;28;20446;-44
2022/04/05 02:01:28;;;;;;;27.43;26.40;;;21.40;42.50;;;;;;5052022;28;20944;-46
2022/04/05 02:03:55;;;;;;;28.10;27.00;;;21.50;42.50;;;;;;5052439;28;20452;-47
2022/04/05 02:06:22;;;;;;;28.03;27.00;;;21.50;42.40;;;;;;5051918;28;20456;-45
2022/04/05 02:08:48;;;;;;;28.87;27.77;;;21.60;42.30;;;;;;5052114;28;20977;-45
2022/04/05 02:11:15;;;;;;;27.80;26.70;;;21.60;42.10;;;;;;5051987;28;20447;-46
2022/04/05 02:13:42;;;;;;;29.90;28.80;;;21.60;42.00;;;;;;5052079;28;20451;-46
2022/04/05 02:16:10;;;;;;;28.53;27.43;;;21.50;42.00;;;;;;5051797;28;20842;-45
2022/04/05 02:18:37;;;;;;;28.30;27.20;;;21.60;42.20;;;;;;5052004;28;20456;-47
2022/04/05 02:21:05;;;;;;;28.73;27.63;;;21.50;42.20;;;;;;5051713;28;20440;-46
2022/04/05 02:23:32;;;;;;;28.37;27.27;;;21.40;42.40;;;;;;5051897;28;20459;-45
2022/04/05 02:25:59;;;;;;;28.80;27.70;;;21.30;42.40;;;;;;5051689;28;20469;-47
2022/04/05 02:28:26;;;;;;;28.60;27.50;;;21.30;42.60;;;;;;5051825;28;20519;-45
2022/04/05 02:30:53;;;;;;;28.77;27.67;;;21.40;42.60;;;;;;5051510;28;20449;-45
2022/04/05 02:33:21;;;;;;;30.47;29.37;;;21.40;42.50;;;;;;5051890;28;20440;-47
2022/04/05 02:35:48;;;;;;;27.60;26.50;;;21.40;42.60;;;;;;5051314;28;20484;-46
2022/04/05 02:38:15;;;;;;;29.40;28.30;;;21.40;42.50;;;;;;5051625;28;21005;-45
2022/04/05 02:40:42;;;;;;;29.00;27.90;;;21.50;42.60;;;;;;5051518;28;20448;-46
2022/04/05 02:43:09;;;;;;;31.10;29.90;;;21.50;42.50;;;;;;5051594;28;20471;-44
2022/04/05 02:45:36;;;;;;;30.40;29.20;;;21.40;42.30;;;;;;5051376;28;20468;-47
2022/04/05 02:48:03;;;;;;;31.83;30.63;;;21.40;42.50;;;;;;5051610;28;20448;-46
2022/04/05 02:50:32;;;;;;;28.93;27.83;;;21.40;42.50;;;;;;5051249;28;20441;-45
2022/04/05 02:52:59;;;;;;;30.53;29.33;;;21.30;42.60;;;;;;5050740;28;20967;-46
2022/04/05 02:55:26;;;;;;;29.03;27.93;;;21.30;42.70;;;;;;5050909;28;20492;-45
2022/04/05 02:57:53;;;;;;;28.97;27.87;;;21.30;42.80;;;;;;5051484;28;20820;-44
2022/04/05 03:00:20;;;;;;;30.57;29.37;;;21.40;42.90;;;;;;5051202;28;20511;-45
2022/04/05 03:02:47;;;;;;;29.30;28.20;;;21.50;42.90;;;;;;5051406;28;20605;-45
2022/04/05 03:05:14;;;;;;;31.10;29.90;;;21.60;42.70;;;;;;5051266;28;20800;-45
2022/04/05 03:07:42;;;;;;;31.43;30.13;;;21.60;42.60;;;;;;5051213;28;20471;-45
2022/04/05 03:10:11;;;;;;;32.20;31.00;;;21.60;42.40;;;;;;5051058;28;20451;-45
2022/04/05 03:12:39;;;;;;;29.70;28.57;;;21.60;42.40;;;;;;5051288;28;20484;-45
2022/04/05 03:15:07;;;;;;;30.33;29.13;;;21.60;42.30;;;;;;5051197;28;20490;-46
2022/04/05 03:17:35;;;;;;;32.83;31.53;;;21.50;42.50;;;;;;5050755;28;20447;-45
2022/04/05 03:20:02;;;;;;;30.50;29.30;;;21.50;42.70;;;;;;5051239;28;20451;-45
2022/04/05 03:22:29;;;;;;;30.80;29.60;;;21.40;42.70;;;;;;5051183;28;20445;-45
2022/04/05 03:24:57;;;;;;;30.13;28.93;;;21.40;42.80;;;;;;5051126;28;20444;-45
2022/04/05 03:27:24;;;;;;;31.33;30.13;;;21.40;42.80;;;;;;5050593;28;21040;-45
2022/04/05 03:29:51;;;;;;;28.50;27.40;;;21.40;42.80;;;;;;5051253;28;20445;-45
2022/04/05 03:32:17;;;;;;;31.07;29.87;;;21.50;42.80;;;;;;5051238;28;20443;-46
2022/04/05 03:34:44;;;;;;;30.13;28.93;;;21.60;42.60;;;;;;5051070;28;20451;-45
2022/04/05 03:37:11;;;;;;;30.10;28.90;;;21.70;42.50;;;;;;5050512;28;20473;-46
2022/04/05 03:39:39;;;;;;;30.20;29.00;;;21.70;42.30;;;;;;5050994;28;20951;-44
2022/04/05 03:42:08;;;;;;;31.00;29.80;;;21.70;42.30;;;;;;5051035;28;20884;-45
2022/04/05 03:44:34;;;;;;;30.07;28.87;;;21.70;42.20;;;;;;5051046;28;20445;-45
2022/04/05 03:47:01;;;;;;;29.60;28.40;;;21.70;42.20;;;;;;5050477;28;20480;-46
2022/04/05 03:49:28;;;;;;;31.37;30.17;;;21.70;42.30;;;;;;5050880;28;20452;-45
2022/04/05 03:51:54;;;;;;;30.40;29.20;;;21.60;42.30;;;;;;5050904;28;20920;-46
2022/04/05 03:54:21;;;;;;;28.80;27.70;;;21.50;42.50;;;;;;5050917;28;20447;-46
2022/04/05 03:56:48;;;;;;;31.40;30.20;;;21.50;42.70;;;;;;5050047;28;20488;-45
2022/04/05 03:59:16;;;;;;;34.43;33.13;;;21.40;42.80;;;;;;5050812;28;20456;-45
2022/04/05 04:01:43;;;;;;;35.87;34.57;;;21.50;42.80;;;;;;5050822;28;20441;-46
2022/04/05 04:04:09;;;;;;;32.30;31.00;;;21.70;42.80;;;;;;5050746;28;20970;-46
2022/04/05 04:06:36;;;;;;;34.00;32.67;;;21.80;42.60;;;;;;5054086;28;20468;-46
2022/04/05 04:09:03;;;;;;;35.33;33.93;;;22.00;42.30;;;;;;5054390;28;20456;-46
2022/04/05 04:11:30;;;;;;;31.20;30.00;;;22.20;42.10;;;;;;5054370;28;20444;-45
2022/04/05 04:13:58;;;;;;;34.53;33.23;;;22.30;41.90;;;;;;5054271;28;20441;-45
2022/04/05 04:16:26;;;;;;;34.27;32.90;;;22.30;41.70;;;;;;5053947;28;20488;-46
2022/04/05 04:18:53;;;;;;;34.23;32.83;;;22.40;41.80;;;;;;5053829;28;20440;-46
2022/04/05 04:21:20;;;;;;;34.60;33.20;;;22.40;41.60;;;;;;5054138;28;20449;-45
2022/04/05 04:23:47;;;;;;;33.60;32.20;;;22.40;41.60;;;;;;5054195;28;20815;-46
2022/04/05 04:26:13;;;;;;;33.03;31.73;;;22.50;41.60;;;;;;5053832;28;20456;-45
2022/04/05 04:28:40;;;;;;;32.90;31.60;;;22.50;41.50;;;;;;5053893;28;20948;-46
2022/04/05 04:31:07;;;;;;;32.90;31.60;;;22.50;41.50;;;;;;5053989;28;20475;-46
2022/04/05 04:33:35;;;;;;;33.43;32.13;;;22.60;41.60;;;;;;5053968;28;20449;-46
2022/04/05 04:36:02;;;;;;;33.77;32.37;;;22.60;41.50;;;;;;5053728;28;20995;-46
2022/04/05 04:38:29;;;;;;;32.33;31.03;;;22.70;41.50;;;;;;5053572;28;20959;-46
2022/04/05 04:40:56;;;;;;;32.60;31.30;;;22.70;41.40;;;;;;5053858;28;20459;-46
2022/04/05 04:43:24;;;;;;;30.43;29.23;;;22.80;41.30;;;;;;5053815;28;20444;-46
2022/04/05 04:45:51;;;;;;;31.70;30.50;;;22.80;41.30;;;;;;5053576;28;21014;-45
2022/04/05 04:48:19;;;;;;;29.10;27.90;;;22.90;41.30;;;;;;5053335;28;20475;-45
2022/04/05 04:50:47;;;;;;;31.70;30.40;;;22.90;41.20;;;;;;5053674;28;20448;-45
2022/04/05 04:53:14;;;;;;;30.60;29.10;;;22.90;41.30;;;;;;5053618;28;20445;-45
2022/04/05 04:55:41;;;;;;;35.47;33.77;;;22.90;41.70;;;;;;5053164;28;20488;-45
2022/04/05 04:58:08;;;;;;;33.30;31.60;;;22.90;42.70;;;;;;5053139;28;20440;-45
2022/04/05 05:00:35;;;;;;;32.70;31.00;;;23.00;42.70;;;;;;5053190;28;20452;-46
2022/04/05 05:03:02;;;;;;;34.80;32.70;;;23.00;43.30;;;;;;5053453;28;20539;-46
2022/04/05 05:05:29;;;;;;;35.80;33.73;;;23.00;44.20;;;;;;5052722;28;20829;-46
2022/04/05 05:07:57;;;;;;;34.20;32.30;;;23.00;46.00;;;;;;5052708;28;20815;-46
2022/04/05 05:10:24;;;;;;;32.67;30.97;;;23.00;46.00;;;;;;5053215;28;20449;-46
2022/04/05 05:12:51;;;;;;;34.03;32.10;;;23.00;45.60;;;;;;5053222;28;20441;-45
2022/04/05 05:15:19;;;;;;;35.17;33.27;;;23.00;45.30;;;;;;5052789;28;20448;-46
2022/04/05 05:17:47;;;;;;;36.77;34.60;;;23.00;44.70;;;;;;5052228;28;20975;-47
2022/04/05 05:20:15;;;;;;;36.93;34.10;;;23.00;44.40;;;;;;5053140;28;20819;-45
2022/04/05 05:22:42;;;;;;;36.37;34.67;;;23.00;44.10;;;;;;5052972;28;20453;-45
2022/04/05 05:25:11;;;;;;;39.43;37.43;;;23.10;43.80;;;;;;5052834;28;20998;-45
2022/04/05 05:27:38;;;;;;;34.70;32.90;;;23.10;43.60;;;;;;5052739;28;20452;-46
2022/04/05 05:30:07;;;;;;;36.60;34.73;;;23.10;43.40;;;;;;5052780;28;20471;-45
2022/04/05 05:32:42;;;;;;;36.83;35.10;;;23.10;43.30;;;;;;5052930;28;20444;-46
2022/04/05 05:35:09;;;;;;;34.27;32.73;;;23.10;43.10;;;;;;5052789;28;20502;-46
2022/04/05 05:37:36;;;;;;;36.10;34.40;;;23.10;42.90;;;;;;5052458;28;20468;-47
2022/04/05 05:40:04;;;;;;;34.50;32.80;;;23.10;42.80;;;;;;5052670;28;20450;-45
2022/04/05 05:42:32;;;;;;;33.83;32.27;;;23.10;42.70;;;;;;5052518;28;20936;-45
2022/04/05 05:44:58;;;;;;;35.57;33.97;;;23.10;42.60;;;;;;5052657;28;20440;-47
2022/04/05 05:47:25;;;;;;;34.60;32.90;;;23.10;42.50;;;;;;5052352;28;20448;-49
2022/04/05 05:49:52;;;;;;;35.00;33.40;;;23.10;42.40;;;;;;5052497;28;20451;-46
2022/04/05 05:52:19;;;;;;;34.53;32.93;;;23.10;42.30;;;;;;5052528;28;20447;-47
2022/04/05 05:54:45;;;;;;;36.63;34.90;;;23.10;42.20;;;;;;5052532;28;20802;-48
2022/04/05 05:57:12;;;;;;;35.50;33.90;;;23.10;42.10;;;;;;5052600;28;20491;-46
2022/04/05 05:59:40;;;;;;;36.50;34.90;;;23.10;42.10;;;;;;5052279;28;20480;-46
2022/04/05 06:02:07;;;;;;;34.93;33.13;;;23.10;42.00;;;;;;5052426;28;20456;-45
2022/04/05 06:04:34;;;;;;;34.10;32.60;;;23.10;41.90;;;;;;5052243;28;20455;-46
2022/04/05 06:07:01;;;;;;;35.40;33.80;;;23.10;41.90;;;;;;5051949;28;21015;-46
2022/04/05 06:09:28;;;;;;;34.57;32.97;;;23.10;41.80;;;;;;5052202;28;20452;-46
2022/04/05 06:11:55;;;;;;;37.80;36.00;;;23.20;41.80;;;;;;5052198;28;20453;-46
2022/04/05 06:14:21;;;;;;;33.33;31.93;;;23.20;41.70;;;;;;5052111;28;20445;-46
2022/04/05 06:16:50;;;;;;;34.80;33.20;;;23.20;41.70;;;;;;5051745;28;20484;-46
2022/04/05 06:19:16;;;;;;;37.30;35.70;;;23.20;41.60;;;;;;5051956;28;20803;-46
2022/04/05 06:21:43;;;;;;;34.73;33.23;;;23.20;41.50;;;;;;5051937;28;20445;-46
2022/04/05 06:24:10;;;;;;;35.40;33.90;;;23.20;41.60;;;;;;5051896;28;20456;-46
2022/04/05 06:26:36;;;;;;;36.93;35.03;;;23.10;41.50;;;;;;5051674;28;20468;-46
2022/04/05 06:29:03;;;;;;;37.10;35.40;;;23.10;41.50;;;;;;5051620;28;20812;-45
2022/04/05 06:31:30;;;;;;;34.63;33.00;;;23.10;41.50;;;;;;5051689;28;20447;-46
2022/04/05 06:34:01;;;;;;;37.70;36.20;;;23.10;41.50;;;;;;5051812;28;20452;-46
2022/04/05 06:36:28;;;;;;;35.07;33.47;;;23.20;42.00;;;;;;5051331;28;20535;-46
2022/04/05 06:38:55;;;;;;;36.40;34.90;;;23.20;42.00;;;;;;5051728;28;20444;-45
2022/04/05 06:41:22;;;;;;;36.60;35.00;;;23.10;41.30;;;;;;5051621;28;20507;-47
2022/04/05 06:43:49;;;;;;;34.00;32.50;;;23.10;41.30;;;;;;5051555;28;20482;-46
2022/04/05 06:46:16;;;;;;;35.90;34.40;;;23.10;41.30;;;;;;5051375;28;20456;-45
2022/04/05 06:48:42;;;;;;;37.53;36.03;;;23.10;41.20;;;;;;5051507;28;20451;-46
2022/04/05 06:51:10;;;;;;;38.77;37.10;;;23.10;41.20;;;;;;5051448;28;20441;-46
2022/04/05 06:53:38;;;;;;;38.33;36.70;;;23.20;41.30;;;;;;5051432;28;20812;-46
2022/04/05 06:56:06;;;;;;;39.00;37.40;;;23.10;41.20;;;;;;5050976;28;20541;-46
2022/04/05 06:58:33;;;;;;;37.17;35.67;;;23.10;41.20;;;;;;5051250;28;20459;-45
2022/04/05 07:01:00;;;;;;;38.13;36.53;;;23.10;41.20;;;;;;5051485;28;20448;-46
2022/04/05 07:03:27;;;;;;;40.97;39.37;;;23.10;41.20;;;;;;5051292;28;20470;-45
2022/04/05 07:05:54;;;;;;;37.90;35.80;;;23.10;41.20;;;;;;5051139;28;20469;-46
2022/04/05 07:08:22;;;;;;;36.10;34.40;;;23.10;41.10;;;;;;5051272;28;20871;-45
2022/04/05 07:10:49;;;;;;;35.00;33.50;;;23.20;41.20;;;;;;5051107;28;20449;-46
2022/04/05 07:13:15;;;;;;;37.87;36.27;;;23.10;41.10;;;;;;5051129;28;20818;-46
2022/04/05 07:15:42;;;;;;;34.57;33.07;;;23.10;41.10;;;;;;5050895;28;20464;-46
2022/04/05 07:18:09;;;;;;;36.13;34.67;;;23.10;41.10;;;;;;5051071;28;20483;-46
2022/04/05 07:20:37;;;;;;;37.53;36.03;;;23.20;41.10;;;;;;5051223;28;20448;-45
2022/04/05 07:23:04;;;;;;;33.50;32.10;;;23.20;41.10;;;;;;5051261;28;20854;-47
2022/04/05 07:25:35;;;;;;;35.23;33.73;;;23.20;41.10;;;;;;5050884;28;20464;-46
2022/04/05 07:28:02;;;;;;;32.80;31.40;;;23.20;41.10;;;;;;5051112;28;20468;-46
2022/04/05 07:30:30;;;;;;;33.63;32.13;;;23.20;41.10;;;;;;5051020;28;20984;-45
2022/04/05 07:32:56;;;;;;;33.33;32.03;;;23.20;41.00;;;;;;5051197;28;20939;-46
2022/04/05 07:35:23;;;;;;;35.30;33.90;;;23.20;41.00;;;;;;5050875;28;20500;-46
2022/04/05 07:37:51;;;;;;;33.53;32.13;;;23.20;40.90;;;;;;5050852;28;20484;-46
2022/04/05 07:40:18;;;;;;;37.27;35.67;;;23.20;40.90;;;;;;5052839;28;20855;-46
2022/04/05 07:42:47;;;;;;;36.43;34.93;;;23.30;40.90;;;;;;5054967;28;20441;-46
2022/04/05 07:45:16;;;;;;;36.70;35.20;;;23.30;40.90;;;;;;5054850;28;20807;-46
2022/04/05 07:47:43;;;;;;;39.10;37.50;;;23.30;40.80;;;;;;5054755;28;20440;-46
2022/04/05 07:50:11;;;;;;;35.97;34.27;;;23.30;40.80;;;;;;5054835;28;20455;-46
2022/04/05 07:52:38;;;;;;;35.90;34.40;;;23.30;40.90;;;;;;5054725;28;20444;-46
2022/04/05 07:55:06;;;;;;;36.00;34.57;;;23.30;40.90;;;;;;5054596;28;20814;-45
2022/04/05 07:57:36;;;;;;;38.10;36.60;;;23.30;40.90;;;;;;5054438;28;21015;-45
2022/04/05 08:00:05;;;;;;;35.00;33.60;;;23.30;40.80;;;;;;5054722;28;20506;-46
2022/04/05 08:02:32;;;;;;;33.77;32.47;;;23.30;40.80;;;;;;5054495;28;20444;-46
2022/04/05 08:04:59;;;;;;;33.63;32.23;;;23.30;40.90;;;;;;5054525;28;20952;-46
2022/04/05 08:07:25;;;;;;;33.37;32.17;;;23.20;40.80;;;;;;5054311;28;20440;-45
2022/04/05 08:09:52;;;;;;;32.10;30.90;;;23.20;40.90;;;;;;5054218;28;20440;-45
2022/04/05 08:12:19;;;;;;;36.60;35.10;;;23.20;40.80;;;;;;5054402;28;20444;-46
2022/04/05 08:14:45;;;;;;;35.20;33.80;;;23.20;40.80;;;;;;5054411;28;20444;-45
2022/04/05 08:17:13;;;;;;;34.97;33.57;;;23.20;40.90;;;;;;5053872;28;20499;-46
2022/04/05 08:19:40;;;;;;;35.40;34.00;;;23.20;40.90;;;;;;5054237;28;20471;-46
2022/04/05 08:22:08;;;;;;;34.77;33.27;;;23.20;40.90;;;;;;5054152;28;20451;-46
2022/04/05 08:24:35;;;;;;;37.20;35.70;;;23.20;40.90;;;;;;5054184;28;20506;-46
2022/04/05 08:27:02;;;;;;;34.47;33.07;;;23.20;40.90;;;;;;5053887;28;20460;-45
2022/04/05 08:29:29;;;;;;;35.20;33.80;;;23.20;40.90;;;;;;5053979;28;20448;-45
2022/04/05 08:31:55;;;;;;;36.70;35.20;;;23.10;40.90;;;;;;5054006;28;20446;-45
2022/04/05 08:34:23;;;;;;;35.77;34.30;;;23.10;41.00;;;;;;5053985;28;20440;-46
2022/04/05 08:36:50;;;;;;;33.60;32.20;;;23.00;41.10;;;;;;5053554;28;20491;-46
2022/04/05 08:39:17;;;;;;;35.00;33.30;;;22.90;41.20;;;;;;5053956;28;20456;-46
2022/04/05 08:41:44;;;;;;;33.70;32.40;;;22.90;41.30;;;;;;5053764;28;20944;-46
2022/04/05 08:44:12;;;;;;;33.53;32.13;;;22.90;41.30;;;;;;5053745;28;20453;-46
2022/04/05 08:46:40;;;;;;;32.70;31.37;;;23.00;41.30;;;;;;5053408;28;20831;-46
2022/04/05 08:49:08;;;;;;;35.20;33.80;;;23.10;41.10;;;;;;5053705;28;20441;-46
2022/04/05 08:51:36;;;;;;;33.17;31.77;;;23.10;41.00;;;;;;5052335;28;20452;-46
2022/04/05 08:54:03;;;;;;;33.43;32.13;;;23.10;41.00;;;;;;5053657;28;20445;-45
2022/04/05 08:56:30;;;;;;;33.07;31.77;;;23.10;41.00;;;;;;5053028;28;20468;-46
2022/04/05 08:58:57;;;;;;;33.10;31.80;;;23.10;41.10;;;;;;5053502;28;20452;-46
2022/04/05 09:01:29;;;;;;;32.10;30.80;;;23.10;41.10;;;;;;5053482;28;20467;-45
2022/04/05 09:03:56;;;;;;;34.27;32.87;;;23.00;41.20;;;;;;5053476;28;20453;-45
2022/04/05 09:06:29;;;;;;;33.10;31.80;;;23.00;41.30;;;;;;5053181;28;20464;-46
2022/04/05 09:09:11;;;;;;;34.40;32.90;;;23.00;41.20;;;;;;5053346;28;20440;-48
2022/04/05 09:11:44;;;;;;;33.47;32.10;;;23.00;41.20;;;;;;5053239;28;20449;-46
2022/04/05 09:14:11;;;;;;;32.80;31.50;;;23.00;41.70;;;;;;5053238;28;20444;-46
2022/04/05 09:16:38;;;;;;;33.17;31.97;;;23.10;41.40;;;;;;5052849;28;20484;-50
2022/04/05 09:19:12;;;;;;;30.43;29.17;;;23.10;41.20;;;;;;5053277;28;20444;-48
2022/04/05 09:21:53;;;;;;;34.20;32.90;;;23.20;41.10;;;;;;5052855;28;20459;-48
2022/04/05 09:24:21;;;;;;;31.80;30.50;;;23.20;41.10;;;;;;5052906;28;20441;-48
2022/04/05 09:26:48;;;;;;;34.53;33.23;;;23.30;41.10;;;;;;5052604;28;20464;-45
2022/04/05 09:29:16;;;;;;;29.27;28.17;;;23.30;40.90;;;;;;5053225;28;20448;-48
2022/04/05 09:31:45;;;;;;;29.70;28.50;;;23.30;40.80;;;;;;5053026;28;20448;-46
2022/04/05 09:34:13;;;;;;;31.10;29.90;;;23.30;40.80;;;;;;5052813;28;20471;-46
2022/04/05 09:36:41;;;;;;;32.27;31.07;;;23.40;40.80;;;;;;5052409;28;20487;-45
2022/04/05 09:39:15;;;;;;;32.70;31.30;;;23.40;40.70;;;;;;5052863;28;20737;-45
2022/04/05 09:41:44;;;;;;;35.37;33.97;;;23.50;40.80;;;;;;5052823;28;20448;-48
2022/04/05 09:44:11;;;;;;;32.90;31.60;;;23.50;40.60;;;;;;5052646;28;20456;-47
2022/04/05 09:46:40;;;;;;;32.50;31.20;;;23.50;40.60;;;;;;5052538;28;20491;-46
2022/04/05 09:49:10;;;;;;;34.30;33.00;;;23.50;40.60;;;;;;5052561;28;20850;-46
2022/04/05 09:51:39;;;;;;;34.53;33.23;;;23.50;40.60;;;;;;5052561;28;20444;-47
2022/04/05 09:54:06;;;;;;;30.83;29.53;;;23.60;40.60;;;;;;5052473;28;20455;-46
2022/04/05 09:56:34;;;;;;;30.67;29.47;;;23.60;40.60;;;;;;5051898;28;20487;-46
2022/04/05 09:59:04;;;;;;;29.73;28.50;;;23.60;40.50;;;;;;5052440;28;20448;-46
2022/04/05 10:01:33;;;;;;;32.20;30.80;;;23.60;40.50;;;;;;5052324;28;20456;-46
2022/04/05 10:04:04;;;;;;;31.40;30.10;;;23.60;40.50;;;;;;5052012;28;20455;-46
2022/04/05 10:06:31;;;;;;;30.00;28.70;;;23.60;40.50;;;;;;5052024;28;20460;-46
2022/04/05 10:08:58;;;;;;;31.67;30.37;;;23.70;40.50;;;;;;5052238;28;20819;-45
2022/04/05 10:11:27;;;;;;;32.53;31.23;;;23.60;40.40;;;;;;5052004;28;20464;-46
2022/04/05 10:13:55;;;;;;;32.23;30.93;;;23.70;40.50;;;;;;5051869;28;20448;-45
2022/04/05 10:16:26;;;;;;;31.20;29.90;;;23.60;40.40;;;;;;5051674;28;20487;-49
2022/04/05 10:18:56;;;;;;;31.90;30.60;;;23.60;40.60;;;;;;5052110;28;20851;-45
2022/04/05 10:21:25;;;;;;;31.83;30.43;;;23.60;40.70;;;;;;5052073;28;20440;-46
2022/04/05 10:23:55;;;;;;;29.77;28.57;;;23.60;40.70;;;;;;5051652;28;20448;-45
2022/04/05 10:26:24;;;;;;;30.10;28.90;;;23.70;40.60;;;;;;5051734;28;20894;-51
2022/04/05 10:28:53;;;;;;;31.93;30.73;;;23.70;40.60;;;;;;5051874;28;20448;-46
2022/04/05 10:31:25;;;;;;;33.23;31.93;;;23.60;40.50;;;;;;5051747;28;20535;-47
2022/04/05 10:34:03;;;;;;;32.87;31.57;;;23.60;40.50;;;;;;5051790;28;20452;-46
2022/04/05 10:36:31;;;;;;;34.37;32.97;;;23.60;40.60;;;;;;5051495;28;20460;-47
2022/04/05 10:39:18;;;;;;;32.53;31.23;;;23.60;40.70;;;;;;5051509;28;20494;-46
2022/04/05 10:42:06;;;;;;;34.37;32.90;;;23.60;40.60;;;;;;5051583;28;20459;-46
2022/04/05 10:44:33;;;;;;;33.93;32.63;;;23.70;40.70;;;;;;5051520;28;20456;-46
2022/04/05 10:47:04;;;;;;;33.73;32.43;;;23.70;40.60;;;;;;5051320;28;20471;-46
2022/04/05 10:49:35;;;;;;;33.50;32.20;;;23.60;40.70;;;;;;5051592;28;20444;-46
2022/04/05 10:52:07;;;;;;;32.60;31.30;;;23.50;40.80;;;;;;5051610;28;20497;-45
2022/04/05 10:54:39;;;;;;;32.27;30.97;;;23.50;40.80;;;;;;5051572;28;20452;-46
2022/04/05 10:57:29;;;;;;;32.90;31.60;;;23.50;40.90;;;;;;5051051;28;20559;-46
2022/04/05 10:59:59;;;;;;;34.17;32.77;;;23.50;40.80;;;;;;5051450;28;20863;-46
2022/04/05 11:03:03;;;;;;;32.57;31.27;;;23.50;40.90;;;;;;5051339;28;20467;-46
2022/04/05 11:05:42;;;;;;;32.10;30.90;;;23.50;41.00;;;;;;5051090;28;20463;-46
2022/04/05 11:08:19;;;;;;;32.33;31.03;;;23.50;40.90;;;;;;5051228;28;20932;-46
2022/04/05 11:11:00;;;;;;;32.40;31.10;;;23.50;40.80;;;;;;5051326;28;20456;-45
2022/04/05 11:13:36;;;;;;;31.50;30.20;;;23.50;40.90;;;;;;5051339;28;20524;-46
2022/04/05 11:16:04;;;;;;;33.00;31.70;;;23.40;40.90;;;;;;5054097;28;20455;-46
2022/04/05 11:18:36;;;;;;;32.63;31.33;;;23.40;40.90;;;;;;5055175;28;20480;-46
2022/04/05 11:21:06;;;;;;;32.10;30.80;;;23.40;40.90;;;;;;5055569;28;20939;-46
2022/04/05 11:23:48;;;;;;;32.80;31.40;;;23.40;41.00;;;;;;5055267;28;20451;-45
2022/04/05 11:26:35;;;;;;;33.27;31.97;;;23.40;40.90;;;;;;5055084;28;20870;-45
2022/04/05 11:29:18;;;;;;;34.60;33.30;;;23.40;41.00;;;;;;5055182;28;20923;-46
2022/04/05 11:31:44;;;;;;;33.13;31.83;;;23.40;41.00;;;;;;5055146;28;20456;-46
2022/04/05 11:34:35;;;;;;;31.93;30.73;;;23.40;41.00;;;;;;5055189;28;20446;-46
2022/04/05 11:37:03;;;;;;;31.67;30.47;;;23.50;41.10;;;;;;5054570;28;20471;-45
2022/04/05 11:39:30;;;;;;;32.80;31.60;;;23.50;41.00;;;;;;5055076;28;20472;-46
2022/04/05 11:42:00;;;;;;;33.70;32.40;;;23.60;40.90;;;;;;5054956;28;20449;-47
2022/04/05 11:44:28;;;;;;;32.27;30.97;;;23.60;41.30;;;;;;5054943;28;20506;-45
2022/04/05 11:46:57;;;;;;;32.83;31.53;;;23.70;40.80;;;;;;5054622;28;20975;-46
2022/04/05 11:49:24;;;;;;;33.73;32.40;;;23.70;40.70;;;;;;5054961;28;20462;-48
2022/04/05 11:51:53;;;;;;;33.00;31.70;;;23.70;40.60;;;;;;5054679;28;20812;-46
2022/04/05 11:54:24;;;;;;;33.30;32.00;;;23.70;40.60;;;;;;5054906;28;20487;-47
2022/04/05 11:56:51;;;;;;;33.37;32.07;;;23.80;40.60;;;;;;5054974;28;20476;-48
2022/04/05 11:59:25;;;;;;;34.83;33.53;;;23.80;40.60;;;;;;5054535;28;20476;-48
2022/04/05 12:01:52;;;;;;;33.37;32.17;;;23.80;40.60;;;;;;5054591;28;20471;-47
2022/04/05 12:04:21;;;;;;;32.73;31.20;;;23.80;40.50;;;;;;5054815;28;20444;-47
2022/04/05 12:06:49;;;;;;;37.40;36.10;;;23.80;40.50;;;;;;5054292;28;20472;-46
2022/04/05 12:09:19;;;;;;;36.80;35.40;;;23.90;40.50;;;;;;5054484;28;20455;-46
2022/04/05 12:11:48;;;;;;;34.37;32.97;;;24.10;40.50;;;;;;5054475;28;20476;-46
2022/04/05 12:14:16;;;;;;;32.23;30.93;;;24.10;40.40;;;;;;5054401;28;20466;-46
2022/04/05 12:16:48;;;;;;;31.20;29.90;;;24.10;40.50;;;;;;5054078;28;20499;-46
2022/04/05 12:19:19;;;;;;;32.73;31.33;;;24.10;40.50;;;;;;5054146;28;20484;-46
2022/04/05 12:21:46;;;;;;;32.97;31.57;;;24.10;40.40;;;;;;5054188;28;20927;-45
2022/04/05 12:24:14;;;;;;;31.03;29.73;;;24.10;40.40;;;;;;5054126;28;20455;-46
2022/04/05 12:26:42;;;;;;;33.13;31.73;;;24.00;40.40;;;;;;5053766;28;20471;-45
2022/04/05 12:29:09;;;;;;;33.83;32.43;;;23.90;40.50;;;;;;5054038;28;20444;-45
2022/04/05 12:31:35;;;;;;;30.10;28.80;;;23.80;40.70;;;;;;5053943;28;20475;-46
2022/04/05 12:34:08;;;;;;;32.90;31.60;;;23.90;40.70;;;;;;5054117;28;20939;-46